createdAt,value
2023-05-15T00:02:14.456Z,94693.72
2023-05-15T00:04:43.041Z,94706.84
2023-05-15T00:07:11.696Z,94709.84
2023-05-15T00:09:40.435Z,94709.47
2023-05-15T00:12:09.262Z,94698.69
2023-05-15T00:14:37.890Z,94699.28
2023-05-15T00:17:06.569Z,94681.41
2023-05-15T00:19:35.182Z,94687.63
2023-05-15T00:22:03.641Z,94694.28
2023-05-15T00:24:32.246Z,94679.41
2023-05-15T00:27:02.120Z,94691.06
2023-05-15T00:29:30.481Z,94692.38
2023-05-15T00:31:58.827Z,94688.72
2023-05-15T00:34:27.723Z,94695.59
2023-05-15T00:36:56.384Z,94680.94
2023-05-15T00:39:25.067Z,94687.38
2023-05-15T00:41:55.320Z,94684.03
2023-05-15T00:44:24.922Z,94677.94
2023-05-15T00:46:54.540Z,94677.53
2023-05-15T00:49:24.199Z,94661.91
2023-05-15T00:51:53.394Z,94676.84
2023-05-15T00:54:23.551Z,94659.03
2023-05-15T00:56:53.063Z,94670.44
2023-05-15T00:59:23.546Z,94668.69
2023-05-15T01:01:52.171Z,94648.38
2023-05-15T01:04:20.897Z,94664.56
2023-05-15T01:06:54.257Z,94664.91
2023-05-15T01:09:25.656Z,94636.69
2023-05-15T01:11:56.609Z,94657.69
2023-05-15T01:14:24.879Z,94652.81
2023-05-15T01:16:53.437Z,94664.34
2023-05-15T01:19:22.202Z,94642.94
2023-05-15T01:21:54.076Z,94645.91
2023-05-15T01:24:49.510Z,94652.91
2023-05-15T01:27:18.088Z,94646.59
2023-05-15T01:29:57.730Z,94645.38
2023-05-15T01:33:05.559Z,94647.81
2023-05-15T01:35:33.964Z,94645.97
2023-05-15T01:38:26.559Z,94645.28
2023-05-15T01:41:08.046Z,94634.34
2023-05-15T01:43:40.180Z,94622.38
2023-05-15T01:46:09.802Z,94632.50
2023-05-15T01:48:39.322Z,94625.47
2023-05-15T01:51:09.410Z,94627.28
2023-05-15T01:53:40.042Z,94627.97
2023-05-15T01:56:10.893Z,94630.81
2023-05-15T01:58:41.433Z,94625.78
2023-05-15T02:01:11.746Z,94625.31
2023-05-15T02:03:41.319Z,94616.16
2023-05-15T02:06:10.648Z,94620.09
2023-05-15T02:08:39.511Z,94630.16
2023-05-15T02:11:09.490Z,94626.59
2023-05-15T02:13:39.303Z,94624.81
2023-05-15T02:16:08.241Z,94621.59
2023-05-15T02:18:36.926Z,94613.22
2023-05-15T02:21:05.788Z,94622.59
2023-05-15T02:23:34.400Z,94616.56
2023-05-15T02:26:20.080Z,94624.75
2023-05-15T02:29:13.012Z,94628.53
2023-05-15T02:31:53.441Z,94631.34
2023-05-15T02:34:35.649Z,94620.72
2023-05-15T02:37:06.297Z,94621.81
2023-05-15T02:39:36.182Z,94600.50
2023-05-15T02:42:05.914Z,94600.88
2023-05-15T02:44:37.436Z,94611.63
2023-05-15T02:47:07.462Z,94619.13
2023-05-15T02:49:37.255Z,94615.56
2023-05-15T02:52:05.925Z,94617.59
2023-05-15T02:54:34.265Z,94617.88
2023-05-15T02:57:02.798Z,94615.25
2023-05-15T02:59:31.548Z,94617.72
2023-05-15T03:02:00.450Z,94599.03
2023-05-15T03:04:30.101Z,94595.28
2023-05-15T03:06:58.424Z,94617.09
2023-05-15T03:09:27.253Z,94620.38
2023-05-15T03:11:55.666Z,94620.03
2023-05-15T03:14:24.301Z,94601.34
2023-05-15T03:16:52.889Z,94621.75
2023-05-15T03:19:21.585Z,94621.25
2023-05-15T03:21:50.252Z,94631.69
2023-05-15T03:24:18.887Z,94627.72
2023-05-15T03:26:47.495Z,94616.81
2023-05-15T03:29:17.139Z,94594.94
2023-05-15T03:31:45.793Z,94607.25
2023-05-15T03:34:13.959Z,94626.53
2023-05-15T03:36:42.602Z,94628.06
2023-05-15T03:39:11.216Z,94622.41
2023-05-15T03:41:39.407Z,94624.88
2023-05-15T03:44:08.117Z,94625.63
2023-05-15T03:46:36.866Z,94624.41
2023-05-15T03:49:05.546Z,94629.34
2023-05-15T03:51:34.272Z,94616.16
2023-05-15T03:54:03.009Z,94638.97
2023-05-15T03:56:32.334Z,94635.34
2023-05-15T03:59:00.682Z,94629.19
2023-05-15T04:01:29.152Z,94636.16
2023-05-15T04:03:57.769Z,94611.66
2023-05-15T04:06:26.549Z,94636.06
2023-05-15T04:08:54.816Z,94623.22
2023-05-15T04:11:24.409Z,94637.66
2023-05-15T04:13:52.960Z,94640.31
2023-05-15T04:16:21.612Z,94643.53
2023-05-15T04:18:49.903Z,94642.63
2023-05-15T04:21:18.566Z,94632.53
2023-05-15T04:23:47.229Z,94643.00
2023-05-15T04:26:15.728Z,94621.41
2023-05-15T04:28:52.475Z,94640.44
2023-05-15T04:31:32.992Z,94620.69
2023-05-15T04:34:01.638Z,94632.94
2023-05-15T04:36:30.257Z,94637.84
2023-05-15T04:39:00.247Z,94636.56
2023-05-15T04:41:28.762Z,94624.66
2023-05-15T04:43:57.785Z,94611.56
2023-05-15T04:46:26.682Z,94629.91
2023-05-15T04:48:55.248Z,94623.25
2023-05-15T04:51:23.431Z,94636.63
2023-05-15T04:53:52.232Z,94638.13
2023-05-15T04:56:20.860Z,94632.28
2023-05-15T04:58:49.804Z,94634.84
2023-05-15T05:01:18.250Z,94637.47
2023-05-15T05:03:46.951Z,94630.47
2023-05-15T05:06:15.325Z,94642.59
2023-05-15T05:08:43.905Z,94638.81
2023-05-15T05:11:12.532Z,94613.22
2023-05-15T05:13:41.424Z,94641.88
2023-05-15T05:16:10.065Z,94635.84
2023-05-15T05:18:39.252Z,94630.06
2023-05-15T05:21:08.090Z,94614.88
2023-05-15T05:23:36.670Z,94638.22
2023-05-15T05:26:06.200Z,94633.34
2023-05-15T05:28:34.951Z,94636.50
2023-05-15T05:31:04.460Z,94619.16
2023-05-15T05:33:33.057Z,94631.44
2023-05-15T05:36:01.421Z,94636.22
2023-05-15T05:38:29.968Z,94642.25
2023-05-15T05:40:58.628Z,94619.91
2023-05-15T05:43:31.032Z,94629.38
2023-05-15T05:45:59.917Z,94626.03
2023-05-15T05:48:28.016Z,94631.78
2023-05-15T05:50:56.458Z,94614.59
2023-05-15T05:53:24.633Z,94626.53
2023-05-15T05:55:53.477Z,94625.38
2023-05-15T05:58:25.952Z,94618.06
2023-05-15T06:00:56.139Z,94625.25
2023-05-15T06:03:29.324Z,94617.41
2023-05-15T06:05:58.535Z,94618.63
2023-05-15T06:08:29.843Z,94611.09
2023-05-15T06:10:58.505Z,94592.47
2023-05-15T06:13:27.230Z,94603.97
2023-05-15T06:15:55.865Z,94610.22
2023-05-15T06:18:24.564Z,94613.41
2023-05-15T06:20:53.221Z,94589.47
2023-05-15T06:23:24.200Z,94589.75
2023-05-15T06:25:53.047Z,94608.16
2023-05-15T06:28:21.758Z,94610.00
2023-05-15T06:30:50.389Z,94595.44
2023-05-15T06:33:19.038Z,94580.13
2023-05-15T06:35:47.610Z,94606.06
2023-05-15T06:38:16.001Z,94600.59
2023-05-15T06:40:44.586Z,94602.22
2023-05-15T06:43:13.210Z,94566.03
2023-05-15T06:45:42.139Z,94594.56
2023-05-15T06:48:11.720Z,94593.78
2023-05-15T06:50:40.291Z,94596.69
2023-05-15T06:53:08.932Z,94588.31
2023-05-15T06:55:39.337Z,94592.41
2023-05-15T06:58:07.967Z,94559.56
2023-05-15T07:00:36.320Z,94581.22
2023-05-15T07:03:05.348Z,94581.50
2023-05-15T07:05:34.252Z,94589.16
2023-05-15T07:08:02.633Z,94582.19
2023-05-15T07:10:30.754Z,94581.44
2023-05-15T07:12:59.323Z,94580.44
2023-05-15T07:15:27.729Z,94575.47
2023-05-15T07:17:56.706Z,94561.19
2023-05-15T07:20:28.186Z,94578.19
2023-05-15T07:22:57.894Z,94574.81
2023-05-15T07:25:27.192Z,94575.94
2023-05-15T07:27:56.186Z,94571.69
2023-05-15T07:30:25.196Z,94571.78
2023-05-15T07:32:53.951Z,94579.16
2023-05-15T07:35:22.697Z,94573.69
2023-05-15T07:37:51.434Z,94575.25
2023-05-15T07:40:19.813Z,94571.00
2023-05-15T07:42:48.476Z,94565.91
2023-05-15T07:45:18.454Z,94573.81
2023-05-15T07:47:48.207Z,94560.19
2023-05-15T07:50:17.819Z,94559.97
2023-05-15T07:52:46.430Z,94556.59
2023-05-15T07:55:15.214Z,94553.22
2023-05-15T07:57:43.850Z,94556.66
2023-05-15T08:00:12.712Z,94552.25
2023-05-15T08:02:42.215Z,94544.97
2023-05-15T08:05:10.911Z,94553.88
2023-05-15T08:07:39.615Z,94546.31
2023-05-15T08:10:10.289Z,94517.84
2023-05-15T08:12:39.095Z,94548.16
2023-05-15T08:15:08.244Z,94541.97
2023-05-15T08:17:36.785Z,94514.81
2023-05-15T08:20:06.454Z,94539.81
2023-05-15T08:22:35.462Z,94533.06
2023-05-15T08:25:05.299Z,94533.88
2023-05-15T08:27:33.558Z,94538.31
2023-05-15T08:30:02.623Z,94533.09
2023-05-15T08:32:31.280Z,94529.16
2023-05-15T08:34:59.855Z,94519.53
2023-05-15T08:37:31.300Z,94525.06
2023-05-15T08:39:59.396Z,94507.91
2023-05-15T08:42:50.360Z,94522.53
2023-05-15T08:45:19.218Z,94520.41
2023-05-15T08:47:47.710Z,94516.22
2023-05-15T08:50:18.937Z,94513.59
2023-05-15T08:52:49.222Z,94505.25
2023-05-15T08:55:18.993Z,94514.72
2023-05-15T08:57:49.167Z,94508.94
2023-05-15T09:00:19.316Z,94508.69
2023-05-15T09:02:48.292Z,94508.69
2023-05-15T09:05:17.170Z,94507.41
2023-05-15T09:07:47.754Z,94501.94
2023-05-15T09:10:17.366Z,94470.84
2023-05-15T09:12:46.372Z,94501.94
2023-05-15T09:15:18.692Z,94491.69
2023-05-15T09:17:47.577Z,94495.06
2023-05-15T09:20:36.354Z,94495.06
2023-05-15T09:23:07.495Z,94472.59
2023-05-15T09:25:36.365Z,94485.41
2023-05-15T09:28:05.438Z,94455.13
2023-05-15T09:30:37.019Z,94479.91
2023-05-15T09:33:06.176Z,94484.88
2023-05-15T09:35:39.775Z,94474.41
2023-05-15T09:38:14.024Z,94474.41
2023-05-15T09:40:42.690Z,94472.84
2023-05-15T09:43:14.025Z,94473.16
2023-05-15T09:45:42.835Z,94464.03
2023-05-15T09:48:13.204Z,94438.47
2023-05-15T09:50:43.849Z,94465.31
2023-05-15T09:55:50.230Z,94458.75
2023-05-15T09:58:20.641Z,94464.53
2023-05-15T10:00:50.026Z,94437.13
2023-05-15T10:03:23.124Z,94462.97
2023-05-15T10:05:52.163Z,94452.00
2023-05-15T10:08:28.838Z,94456.47
2023-05-15T10:11:02.701Z,94449.63
2023-05-15T10:13:34.217Z,94423.06
2023-05-15T10:16:05.248Z,94451.53
2023-05-15T10:18:35.333Z,94448.41
2023-05-15T10:21:05.635Z,94423.84
2023-05-15T10:23:39.059Z,94437.66
2023-05-15T10:26:17.590Z,94422.53
2023-05-15T10:28:47.205Z,94438.41
2023-05-15T10:31:15.910Z,94432.16
2023-05-15T10:33:46.233Z,94433.75
2023-05-15T10:36:16.319Z,94439.50
2023-05-15T10:38:46.160Z,94440.84
2023-05-15T10:41:18.286Z,94436.63
2023-05-15T10:43:48.436Z,94424.84
2023-05-15T10:46:18.090Z,94434.22
2023-05-15T10:48:47.039Z,94426.34
2023-05-15T10:51:43.730Z,94433.72
2023-05-15T10:54:12.314Z,94420.34
2023-05-15T10:56:41.464Z,94429.25
2023-05-15T10:59:12.324Z,94423.53
2023-05-15T11:01:42.408Z,94419.59
2023-05-15T11:04:11.945Z,94413.06
2023-05-15T11:06:44.157Z,94392.22
2023-05-15T11:09:27.408Z,94418.06
2023-05-15T11:11:58.287Z,94419.63
2023-05-15T11:14:28.517Z,94414.16
2023-05-15T11:16:58.672Z,94413.66
2023-05-15T11:19:31.306Z,94406.09
2023-05-15T11:22:24.506Z,94404.53
2023-05-15T11:25:03.629Z,94399.03
2023-05-15T11:27:33.481Z,94398.25
2023-05-15T11:30:28.001Z,94402.44
2023-05-15T11:33:04.102Z,94397.25
2023-05-15T11:35:48.773Z,94403.00
2023-05-15T11:38:20.844Z,94380.81
2023-05-15T11:41:04.218Z,94399.84
2023-05-15T11:43:38.709Z,94398.53
2023-05-15T11:46:12.046Z,94403.50
2023-05-15T11:48:50.818Z,94404.03
2023-05-15T11:51:25.585Z,94393.56
2023-05-15T11:53:57.670Z,94377.38
2023-05-15T11:56:29.583Z,94393.06
2023-05-15T11:59:01.509Z,94356.50
2023-05-15T12:01:41.942Z,94393.31
2023-05-15T12:04:18.164Z,94362.28
2023-05-15T12:06:51.414Z,94392.50
2023-05-15T12:09:20.682Z,94388.34
2023-05-15T12:11:56.404Z,94388.09
2023-05-15T12:14:31.710Z,94389.91
2023-05-15T12:17:07.306Z,94379.94
2023-05-15T12:19:37.288Z,94365.34
2023-05-15T12:22:09.891Z,94377.31
2023-05-15T12:24:41.158Z,94380.16
2023-05-15T12:27:11.177Z,94378.56
2023-05-15T12:29:40.940Z,94374.13
2023-05-15T12:32:10.065Z,94372.56
2023-05-15T12:34:39.107Z,94368.88
2023-05-15T12:37:07.712Z,94379.59
2023-05-15T12:39:36.396Z,94383.97
2023-05-15T12:42:05.964Z,94380.03
2023-05-15T12:44:34.576Z,94377.91
2023-05-15T12:47:03.193Z,94375.34
2023-05-15T12:49:32.030Z,94369.28
2023-05-15T12:52:09.076Z,94382.63
2023-05-15T12:54:42.960Z,94352.59
2023-05-15T12:57:12.019Z,94375.47
2023-05-15T12:59:42.149Z,94372.81
2023-05-15T13:02:15.252Z,94374.91
2023-05-15T13:04:43.904Z,94351.38
2023-05-15T13:07:17.998Z,94373.50
2023-05-15T13:09:48.424Z,94369.50
2023-05-15T13:12:20.529Z,94367.34
2023-05-15T13:14:49.614Z,94354.75
2023-05-15T13:17:17.980Z,94336.97
2023-05-15T13:19:45.905Z,94357.47
2023-05-15T13:22:14.630Z,94355.59
2023-05-15T13:24:47.018Z,94341.88
2023-05-15T13:27:15.180Z,94348.63
2023-05-15T13:29:43.839Z,94325.66
2023-05-15T13:32:12.455Z,94339.88
2023-05-15T13:34:41.143Z,94313.22
2023-05-15T13:37:09.757Z,94309.69
2023-05-15T13:39:37.714Z,94337.53
2023-05-15T13:42:06.380Z,94329.31
2023-05-15T13:44:36.696Z,94348.53
2023-05-15T13:47:05.835Z,94317.97
2023-05-15T13:49:34.530Z,94342.09
2023-05-15T13:52:03.436Z,94311.72
2023-05-15T13:54:33.197Z,94340.81
2023-05-15T13:57:03.126Z,94327.56
2023-05-15T13:59:31.789Z,94325.44
2023-05-15T14:02:00.557Z,94299.81
2023-05-15T14:04:29.106Z,94320.94
2023-05-15T14:06:57.452Z,94291.56
2023-05-15T14:09:25.629Z,94313.47
2023-05-15T14:11:53.989Z,94291.25
2023-05-15T14:14:22.680Z,94310.41
2023-05-15T14:16:51.373Z,94282.72
2023-05-15T14:19:20.072Z,94287.94
2023-05-15T14:21:48.859Z,94297.00
2023-05-15T14:24:17.438Z,94278.78
2023-05-15T14:26:46.607Z,94290.38
2023-05-15T14:29:15.653Z,94291.28
2023-05-15T14:31:46.856Z,94291.47
2023-05-15T14:34:17.237Z,94287.28
2023-05-15T14:36:45.873Z,94272.97
2023-05-15T14:39:16.913Z,94292.63
2023-05-15T14:41:46.360Z,94263.59
2023-05-15T14:44:15.240Z,94289.41
2023-05-15T14:46:44.749Z,94289.13
2023-05-15T14:49:13.404Z,94291.06
2023-05-15T14:51:42.224Z,94251.59
2023-05-15T14:54:10.821Z,94258.25
2023-05-15T14:56:39.439Z,94270.03
2023-05-15T14:59:08.565Z,94281.13
2023-05-15T15:01:36.892Z,94247.19
2023-05-15T15:04:05.632Z,94268.47
2023-05-15T15:06:34.369Z,94267.88
2023-05-15T15:09:03.584Z,94259.63
2023-05-15T15:11:32.205Z,94255.81
2023-05-15T15:14:01.311Z,94256.16
2023-05-15T15:16:29.607Z,94232.22
2023-05-15T15:18:58.236Z,94254.84
2023-05-15T15:21:26.444Z,94244.72
2023-05-15T15:23:56.086Z,94222.88
2023-05-15T15:26:24.717Z,94244.41
2023-05-15T15:28:52.933Z,94239.38
2023-05-15T15:31:21.720Z,94215.00
2023-05-15T15:33:50.620Z,94238.78
2023-05-15T15:38:48.958Z,94232.41
2023-05-15T15:41:17.821Z,94212.66
2023-05-15T15:43:46.511Z,94221.44
2023-05-15T15:46:14.788Z,94190.28
2023-05-15T15:48:43.499Z,94207.16
2023-05-15T15:51:12.308Z,94210.53
2023-05-15T15:53:40.684Z,94212.13
2023-05-15T15:56:10.186Z,94206.97
2023-05-15T15:58:38.821Z,94190.09
2023-05-15T16:01:07.500Z,94189.56
2023-05-15T16:03:35.845Z,94203.66
2023-05-15T16:06:04.598Z,94186.50
2023-05-15T16:08:33.609Z,94179.59
2023-05-15T16:11:03.227Z,94188.78
2023-05-15T16:13:31.986Z,94188.50
2023-05-15T16:16:00.604Z,94175.44
2023-05-15T16:18:29.210Z,94181.31
2023-05-15T16:20:57.553Z,94175.69
2023-05-15T16:23:25.787Z,94169.25
2023-05-15T16:25:54.465Z,94170.91
2023-05-15T16:28:23.145Z,94162.41
2023-05-15T16:30:52.202Z,94173.69
2023-05-15T16:33:21.095Z,94148.88
2023-05-15T16:35:50.881Z,94150.91
2023-05-15T16:38:19.676Z,94133.50
2023-05-15T16:40:48.563Z,94159.94
2023-05-15T16:43:18.431Z,94148.41
2023-05-15T16:45:47.732Z,94150.84
2023-05-15T16:48:16.384Z,94148.22
2023-05-15T16:50:45.031Z,94147.09
2023-05-15T16:53:13.788Z,94138.91
2023-05-15T16:55:42.011Z,94138.97
2023-05-15T16:58:09.996Z,94134.34
2023-05-15T17:00:38.746Z,94134.56
2023-05-15T17:03:08.346Z,94129.53
2023-05-15T17:05:36.552Z,94126.25
2023-05-15T17:08:05.598Z,94103.53
2023-05-15T17:10:33.839Z,94107.78
2023-05-15T17:13:02.449Z,94099.91
2023-05-15T17:15:31.097Z,94103.00
2023-05-15T17:17:59.707Z,94087.66
2023-05-15T17:20:28.512Z,94097.31
2023-05-15T17:22:56.710Z,94086.31
2023-05-15T17:25:25.326Z,94084.91
2023-05-15T17:27:54.169Z,94083.91
2023-05-15T17:30:22.944Z,94064.22
2023-05-15T17:32:51.716Z,94067.25
2023-05-15T17:35:20.409Z,94088.41
2023-05-15T17:37:48.476Z,94072.16
2023-05-15T17:40:17.194Z,94065.59
2023-05-15T17:42:47.008Z,94061.75
2023-05-15T17:45:15.532Z,94058.94
2023-05-15T17:47:43.872Z,94053.81
2023-05-15T17:50:12.945Z,94056.34
2023-05-15T17:52:41.193Z,94050.84
2023-05-15T17:55:10.364Z,94047.69
2023-05-15T17:57:39.033Z,94041.16
2023-05-15T18:00:09.662Z,94047.34
2023-05-15T18:02:38.302Z,94012.91
2023-05-15T18:05:07.226Z,94037.25
2023-05-15T18:07:35.629Z,94025.59
2023-05-15T18:10:04.275Z,94034.16
2023-05-15T18:12:32.876Z,94036.78
2023-05-15T18:15:01.485Z,94030.31
2023-05-15T18:17:30.681Z,94001.16
2023-05-15T18:19:59.260Z,94013.31
2023-05-15T18:22:27.922Z,94014.97
2023-05-15T18:24:56.476Z,94004.78
2023-05-15T18:27:24.727Z,93995.59
2023-05-15T18:29:52.989Z,94004.31
2023-05-15T18:32:21.184Z,94002.63
2023-05-15T18:34:49.813Z,93998.25
2023-05-15T18:37:18.283Z,93998.47
2023-05-15T18:39:47.091Z,93994.53
2023-05-15T18:42:16.167Z,93992.19
2023-05-15T18:44:45.589Z,93990.72
2023-05-15T18:47:13.878Z,93996.69
2023-05-15T18:49:42.569Z,93986.97
2023-05-15T18:52:11.006Z,93989.06
2023-05-15T18:54:40.489Z,93973.69
2023-05-15T18:57:09.604Z,93987.22
2023-05-15T18:59:38.146Z,93960.47
2023-05-15T19:02:06.355Z,93970.09
2023-05-15T19:04:34.951Z,93962.03
2023-05-15T19:07:03.643Z,93952.75
2023-05-15T19:09:32.598Z,93957.22
2023-05-15T19:12:01.767Z,93957.84
2023-05-15T19:14:30.283Z,93943.00
2023-05-15T19:16:58.529Z,93938.22
2023-05-15T19:19:27.528Z,93937.91
2023-05-15T19:21:56.305Z,93935.25
2023-05-15T19:24:24.991Z,93913.63
2023-05-15T19:26:54.630Z,93931.38
2023-05-15T19:29:23.268Z,93903.63
2023-05-15T19:31:51.665Z,93888.44
2023-05-15T19:34:21.306Z,93916.28
2023-05-15T19:36:51.648Z,93902.34
2023-05-15T19:39:20.575Z,93920.94
2023-05-15T19:41:49.223Z,93904.94
2023-05-15T19:44:19.006Z,93908.38
2023-05-15T19:46:47.915Z,93897.44
2023-05-15T19:49:16.766Z,93892.97
2023-05-15T19:51:45.301Z,93873.78
2023-05-15T19:54:14.008Z,93895.88
2023-05-15T19:56:42.861Z,93885.34
2023-05-15T19:59:11.946Z,93885.84
2023-05-15T20:01:40.692Z,93867.56
2023-05-15T20:04:09.444Z,93869.53
2023-05-15T20:06:38.077Z,93864.34
2023-05-15T20:09:06.185Z,93848.75
2023-05-15T20:11:34.616Z,93854.22
2023-05-15T20:14:03.302Z,93853.28
2023-05-15T20:16:32.121Z,93847.88
2023-05-15T20:19:01.085Z,93854.16
2023-05-15T20:21:30.185Z,93835.13
2023-05-15T20:23:59.407Z,93837.63
2023-05-15T20:26:28.096Z,93826.44
2023-05-15T20:28:56.891Z,93835.38
2023-05-15T20:31:25.520Z,93829.34
2023-05-15T20:33:54.151Z,93825.88
2023-05-15T20:36:26.162Z,93802.63
2023-05-15T20:38:57.274Z,93814.13
2023-05-15T20:41:25.929Z,93814.56
2023-05-15T20:43:54.512Z,93802.38
2023-05-15T20:46:22.696Z,93786.34
2023-05-15T20:48:51.527Z,93794.63
2023-05-15T20:51:20.188Z,93796.44
2023-05-15T20:53:48.760Z,93791.09
2023-05-15T20:56:17.707Z,93789.38
2023-05-15T20:58:46.379Z,93782.41
2023-05-15T21:01:16.582Z,93774.38
2023-05-15T21:03:45.972Z,93772.66
2023-05-15T21:06:15.961Z,93770.16
2023-05-15T21:08:44.643Z,93766.75
2023-05-15T21:11:13.298Z,93741.00
2023-05-15T21:13:42.011Z,93751.50
2023-05-15T21:16:10.570Z,93753.06
2023-05-15T21:18:40.241Z,93722.50
2023-05-15T21:21:09.004Z,93743.59
2023-05-15T21:23:38.149Z,93728.22
2023-05-15T21:26:06.882Z,93726.88
2023-05-15T21:28:36.704Z,93719.66
2023-05-15T21:31:12.524Z,93722.03
2023-05-15T21:33:41.464Z,93714.53
2023-05-15T21:36:09.835Z,93699.72
2023-05-15T21:38:38.516Z,93696.50
2023-05-15T21:41:07.678Z,93706.91
2023-05-15T21:43:36.342Z,93680.13
2023-05-15T21:46:05.057Z,93683.59
2023-05-15T21:48:33.762Z,93699.03
2023-05-15T21:51:01.935Z,93669.88
2023-05-15T21:53:30.664Z,93667.97
2023-05-15T21:56:03.363Z,93675.44
2023-05-15T21:58:32.645Z,93662.09
2023-05-15T22:01:01.797Z,93675.09
2023-05-15T22:03:30.527Z,93669.16
2023-05-15T22:05:59.073Z,93660.81
2023-05-15T22:08:28.063Z,93656.25
2023-05-15T22:10:56.738Z,93658.81
2023-05-15T22:13:25.403Z,93649.41
2023-05-15T22:15:54.192Z,93632.53
2023-05-15T22:18:22.950Z,93647.94
2023-05-15T22:20:51.964Z,93638.38
2023-05-15T22:23:20.561Z,93625.72
2023-05-15T22:25:50.630Z,93608.22
2023-05-15T22:28:19.446Z,93622.38
2023-05-15T22:30:48.397Z,93616.28
2023-05-15T22:33:17.033Z,93610.94
2023-05-15T22:35:45.457Z,93590.63
2023-05-15T22:38:14.014Z,93601.38
2023-05-15T22:40:42.920Z,93596.88
2023-05-15T22:43:11.971Z,93569.38
2023-05-15T22:45:40.332Z,93592.22
2023-05-15T22:48:08.797Z,93581.47
2023-05-15T22:50:38.191Z,93575.84
2023-05-15T22:53:06.854Z,93575.44
2023-05-15T22:55:35.451Z,93578.03
2023-05-15T22:58:04.186Z,93572.31
2023-05-15T23:00:33.035Z,93554.03
2023-05-15T23:03:01.977Z,93557.16
2023-05-15T23:05:30.691Z,93544.13
2023-05-15T23:08:30.557Z,93557.09
2023-05-15T23:10:59.157Z,93541.72
2023-05-15T23:13:28.077Z,93554.78
2023-05-15T23:15:56.785Z,93548.25
2023-05-15T23:18:25.171Z,93554.41
2023-05-15T23:20:53.318Z,93544.03
2023-05-15T23:23:21.995Z,93546.41
2023-05-15T23:25:50.661Z,93531.50
2023-05-15T23:28:19.261Z,93522.75
2023-05-15T23:30:47.899Z,93535.75
2023-05-15T23:33:16.372Z,93515.91
2023-05-15T23:35:44.925Z,93527.00
2023-05-15T23:38:13.545Z,93528.47
2023-05-15T23:40:42.175Z,93522.34
2023-05-15T23:43:10.839Z,93519.31
2023-05-15T23:45:39.459Z,93514.78
2023-05-15T23:48:08.382Z,93516.69
2023-05-15T23:50:40.592Z,93504.44
2023-05-15T23:53:09.838Z,93504.47
2023-05-15T23:55:38.501Z,93505.59
2023-05-15T23:58:07.416Z,93506.72
